sensor_id;sensor_type;location;lat;lon;timestamp;temperature;humidity
11848;DHT22;5983;49.966;8.052;2023-04-19T00:01:18;10.90;99.90
11848;DHT22;5983;49.966;8.052;2023-04-19T00:03:45;10.80;99.90
11848;DHT22;5983;49.966;8.052;2023-04-19T00:06:12;10.70;99.90
11848;DHT22;5983;49.966;8.052;2023-04-19T00:08:41;10.60;99.90
11848;DHT22;5983;49.966;8.052;2023-04-19T00:11:08;10.60;99.90
11848;DHT22;5983;49.966;8.052;2023-04-19T00:13:35;10.50;99.90
11848;DHT22;5983;49.966;8.052;2023-04-19T00:16:02;10.50;99.90
11848;DHT22;5983;49.966;8.052;2023-04-19T00:18:30;10.40;99.90
11848;DHT22;5983;49.966;8.052;2023-04-19T00:20:57;10.40;99.90
11848;DHT22;5983;49.966;8.052;2023-04-19T00:23:24;10.40;99.90
11848;DHT22;5983;49.966;8.052;2023-04-19T00:25:52;10.40;99.90
11848;DHT22;5983;49.966;8.052;2023-04-19T00:28:19;10.40;99.90
11848;DHT22;5983;49.966;8.052;2023-04-19T00:30:45;10.30;99.90
11848;DHT22;5983;49.966;8.052;2023-04-19T00:33:12;10.30;99.90
11848;DHT22;5983;49.966;8.052;2023-04-19T00:35:39;10.30;99.90
11848;DHT22;5983;49.966;8.052;2023-04-19T00:38:07;10.40;99.90
11848;DHT22;5983;49.966;8.052;2023-04-19T00:40:34;10.30;99.90
11848;DHT22;5983;49.966;8.052;2023-04-19T00:43:03;10.30;99.90
11848;DHT22;5983;49.966;8.052;2023-04-19T00:45:29;10.30;99.90
11848;DHT22;5983;49.966;8.052;2023-04-19T00:47:58;10.30;99.90
11848;DHT22;5983;49.966;8.052;2023-04-19T00:50:25;10.30;99.90
11848;DHT22;5983;49.966;8.052;2023-04-19T00:52:52;10.30;99.90
11848;DHT22;5983;49.966;8.052;2023-04-19T00:55:20;10.30;99.90
11848;DHT22;5983;49.966;8.052;2023-04-19T00:57:48;10.40;99.90
11848;DHT22;5983;49.966;8.052;2023-04-19T01:00:17;10.30;99.90
11848;DHT22;5983;49.966;8.052;2023-04-19T01:02:44;10.40;99.90
11848;DHT22;5983;49.966;8.052;2023-04-19T01:05:11;10.40;99.90
11848;DHT22;5983;49.966;8.052;2023-04-19T01:07:38;10.40;99.90
11848;DHT22;5983;49.966;8.052;2023-04-19T01:10:05;10.50;99.90
11848;DHT22;5983;49.966;8.052;2023-04-19T01:12:32;10.50;99.90
11848;DHT22;5983;49.966;8.052;2023-04-19T01:15:00;10.40;99.90
11848;DHT22;5983;49.966;8.052;2023-04-19T01:17:28;10.40;99.90
11848;DHT22;5983;49.966;8.052;2023-04-19T01:19:58;10.50;99.90
11848;DHT22;5983;49.966;8.052;2023-04-19T01:22:26;10.50;99.90
11848;DHT22;5983;49.966;8.052;2023-04-19T01:24:54;10.50;99.90
11848;DHT22;5983;49.966;8.052;2023-04-19T01:27:21;10.60;99.90
11848;DHT22;5983;49.966;8.052;2023-04-19T01:33:10;10.70;99.90
11848;DHT22;5983;49.966;8.052;2023-04-19T01:35:37;10.70;99.90
11848;DHT22;5983;49.966;8.052;2023-04-19T01:38:05;10.80;99.90
11848;DHT22;5983;49.966;8.052;2023-04-19T01:40:31;10.90;99.90
11848;DHT22;5983;49.966;8.052;2023-04-19T01:42:58;10.90;99.90
11848;DHT22;5983;49.966;8.052;2023-04-19T01:45:25;10.90;99.90
11848;DHT22;5983;49.966;8.052;2023-04-19T01:47:52;11.00;99.90
11848;DHT22;5983;49.966;8.052;2023-04-19T01:50:20;11.00;99.90
11848;DHT22;5983;49.966;8.052;2023-04-19T01:52:47;11.00;99.90
11848;DHT22;5983;49.966;8.052;2023-04-19T01:55:15;11.10;99.90
11848;DHT22;5983;49.966;8.052;2023-04-19T01:57:41;11.10;99.90
11848;DHT22;5983;49.966;8.052;2023-04-19T02:00:10;11.10;99.90
11848;DHT22;5983;49.966;8.052;2023-04-19T02:05:13;11.10;99.90
11848;DHT22;5983;49.966;8.052;2023-04-19T02:07:40;11.10;99.90
11848;DHT22;5983;49.966;8.052;2023-04-19T02:10:08;11.10;99.90
11848;DHT22;5983;49.966;8.052;2023-04-19T02:12:36;11.10;99.90
11848;DHT22;5983;49.966;8.052;2023-04-19T02:15:03;11.10;99.90
11848;DHT22;5983;49.966;8.052;2023-04-19T02:17:31;11.20;99.90
11848;DHT22;5983;49.966;8.052;2023-04-19T02:19:58;11.20;99.90
11848;DHT22;5983;49.966;8.052;2023-04-19T02:22:24;11.20;99.90
11848;DHT22;5983;49.966;8.052;2023-04-19T02:24:51;11.20;99.90
11848;DHT22;5983;49.966;8.052;2023-04-19T02:27:18;11.20;99.90
11848;DHT22;5983;49.966;8.052;2023-04-19T02:29:46;11.10;99.90
11848;DHT22;5983;49.966;8.052;2023-04-19T02:32:13;11.10;99.90
11848;DHT22;5983;49.966;8.052;2023-04-19T02:34:40;11.20;99.90
11848;DHT22;5983;49.966;8.052;2023-04-19T02:37:06;11.10;99.90
11848;DHT22;5983;49.966;8.052;2023-04-19T02:39:33;11.10;99.90
11848;DHT22;5983;49.966;8.052;2023-04-19T02:42:00;11.10;99.90
11848;DHT22;5983;49.966;8.052;2023-04-19T02:44:27;11.20;99.90
11848;DHT22;5983;49.966;8.052;2023-04-19T02:46:55;11.20;99.90
11848;DHT22;5983;49.966;8.052;2023-04-19T02:49:22;11.20;99.90
11848;DHT22;5983;49.966;8.052;2023-04-19T02:51:49;11.20;99.90
11848;DHT22;5983;49.966;8.052;2023-04-19T02:54:17;11.20;99.90
11848;DHT22;5983;49.966;8.052;2023-04-19T02:56:44;11.20;99.90
11848;DHT22;5983;49.966;8.052;2023-04-19T02:59:10;11.20;99.90
11848;DHT22;5983;49.966;8.052;2023-04-19T03:01:37;11.20;99.90
11848;DHT22;5983;49.966;8.052;2023-04-19T03:04:05;11.20;99.90
11848;DHT22;5983;49.966;8.052;2023-04-19T03:06:32;11.20;99.90
11848;DHT22;5983;49.966;8.052;2023-04-19T03:08:59;11.20;99.90
11848;DHT22;5983;49.966;8.052;2023-04-19T03:11:25;11.20;99.90
11848;DHT22;5983;49.966;8.052;2023-04-19T03:13:52;11.20;99.90
11848;DHT22;5983;49.966;8.052;2023-04-19T03:16:19;11.20;99.90
11848;DHT22;5983;49.966;8.052;2023-04-19T03:18:46;11.10;99.90
11848;DHT22;5983;49.966;8.052;2023-04-19T03:21:14;11.20;99.90
11848;DHT22;5983;49.966;8.052;2023-04-19T03:23:41;11.10;99.90
11848;DHT22;5983;49.966;8.052;2023-04-19T03:26:07;11.20;99.90
11848;DHT22;5983;49.966;8.052;2023-04-19T03:28:35;11.20;99.90
11848;DHT22;5983;49.966;8.052;2023-04-19T03:31:02;11.10;99.90
11848;DHT22;5983;49.966;8.052;2023-04-19T03:33:29;11.10;99.90
11848;DHT22;5983;49.966;8.052;2023-04-19T03:35:55;11.10;99.90
11848;DHT22;5983;49.966;8.052;2023-04-19T03:38:23;11.10;99.90
11848;DHT22;5983;49.966;8.052;2023-04-19T03:40:50;11.10;99.90
11848;DHT22;5983;49.966;8.052;2023-04-19T03:43:17;11.10;99.90
11848;DHT22;5983;49.966;8.052;2023-04-19T03:45:44;11.10;99.90
11848;DHT22;5983;49.966;8.052;2023-04-19T03:48:10;11.10;99.90
11848;DHT22;5983;49.966;8.052;2023-04-19T03:50:37;11.10;99.90
11848;DHT22;5983;49.966;8.052;2023-04-19T03:53:04;11.10;99.90
11848;DHT22;5983;49.966;8.052;2023-04-19T03:55:32;11.10;99.90
11848;DHT22;5983;49.966;8.052;2023-04-19T03:57:59;11.10;99.90
11848;DHT22;5983;49.966;8.052;2023-04-19T04:00:26;11.00;99.90
11848;DHT22;5983;49.966;8.052;2023-04-19T04:02:52;11.00;99.90
11848;DHT22;5983;49.966;8.052;2023-04-19T04:05:19;11.00;99.90
11848;DHT22;5983;49.966;8.052;2023-04-19T04:07:46;11.00;99.90
11848;DHT22;5983;49.966;8.052;2023-04-19T04:10:13;10.90;99.90
11848;DHT22;5983;49.966;8.052;2023-04-19T04:12:41;10.90;99.90
11848;DHT22;5983;49.966;8.052;2023-04-19T04:15:08;10.90;99.90
11848;DHT22;5983;49.966;8.052;2023-04-19T04:17:35;10.90;99.90
11848;DHT22;5983;49.966;8.052;2023-04-19T04:20:02;10.80;99.90
11848;DHT22;5983;49.966;8.052;2023-04-19T04:22:29;10.80;99.90
11848;DHT22;5983;49.966;8.052;2023-04-19T04:24:57;10.80;99.90
11848;DHT22;5983;49.966;8.052;2023-04-19T04:27:25;10.80;99.90
11848;DHT22;5983;49.966;8.052;2023-04-19T04:29:53;10.80;99.90
11848;DHT22;5983;49.966;8.052;2023-04-19T04:32:21;10.80;99.90
11848;DHT22;5983;49.966;8.052;2023-04-19T04:34:48;10.80;99.90
11848;DHT22;5983;49.966;8.052;2023-04-19T04:37:15;10.80;99.90
11848;DHT22;5983;49.966;8.052;2023-04-19T04:39:42;10.80;99.90
11848;DHT22;5983;49.966;8.052;2023-04-19T04:42:09;10.80;99.90
11848;DHT22;5983;49.966;8.052;2023-04-19T04:44:36;10.80;99.90
11848;DHT22;5983;49.966;8.052;2023-04-19T04:47:05;10.80;99.90
11848;DHT22;5983;49.966;8.052;2023-04-19T04:49:32;10.80;99.90
11848;DHT22;5983;49.966;8.052;2023-04-19T04:51:59;10.80;99.90
11848;DHT22;5983;49.966;8.052;2023-04-19T04:54:25;10.80;99.90
11848;DHT22;5983;49.966;8.052;2023-04-19T04:56:52;10.80;99.90
11848;DHT22;5983;49.966;8.052;2023-04-19T04:59:19;10.80;99.90
11848;DHT22;5983;49.966;8.052;2023-04-19T05:01:46;10.80;99.90
11848;DHT22;5983;49.966;8.052;2023-04-19T05:04:14;10.80;99.90
11848;DHT22;5983;49.966;8.052;2023-04-19T05:06:40;10.80;99.90
11848;DHT22;5983;49.966;8.052;2023-04-19T05:09:08;10.90;99.90
11848;DHT22;5983;49.966;8.052;2023-04-19T05:11:35;10.90;99.90
11848;DHT22;5983;49.966;8.052;2023-04-19T05:14:02;11.00;99.90
11848;DHT22;5983;49.966;8.052;2023-04-19T05:16:29;11.00;99.90
11848;DHT22;5983;49.966;8.052;2023-04-19T05:18:56;11.10;99.90
11848;DHT22;5983;49.966;8.052;2023-04-19T05:21:24;11.10;99.90
11848;DHT22;5983;49.966;8.052;2023-04-19T05:23:52;11.20;99.90
11848;DHT22;5983;49.966;8.052;2023-04-19T05:26:18;11.30;99.90
11848;DHT22;5983;49.966;8.052;2023-04-19T05:28:45;11.30;99.90
11848;DHT22;5983;49.966;8.052;2023-04-19T05:31:12;11.40;99.90
11848;DHT22;5983;49.966;8.052;2023-04-19T05:33:39;11.40;99.90
11848;DHT22;5983;49.966;8.052;2023-04-19T05:36:06;11.50;99.90
11848;DHT22;5983;49.966;8.052;2023-04-19T05:38:34;11.60;99.90
11848;DHT22;5983;49.966;8.052;2023-04-19T05:41:01;11.60;99.90
11848;DHT22;5983;49.966;8.052;2023-04-19T05:43:28;11.60;99.90
11848;DHT22;5983;49.966;8.052;2023-04-19T05:45:55;11.70;99.90
11848;DHT22;5983;49.966;8.052;2023-04-19T05:48:22;11.70;99.90
11848;DHT22;5983;49.966;8.052;2023-04-19T05:50:49;11.70;99.90
11848;DHT22;5983;49.966;8.052;2023-04-19T05:53:18;11.70;99.90
11848;DHT22;5983;49.966;8.052;2023-04-19T05:55:46;11.80;99.90
11848;DHT22;5983;49.966;8.052;2023-04-19T05:58:15;11.80;99.90
11848;DHT22;5983;49.966;8.052;2023-04-19T06:00:41;11.70;99.90
11848;DHT22;5983;49.966;8.052;2023-04-19T06:03:08;11.80;99.90
11848;DHT22;5983;49.966;8.052;2023-04-19T06:05:36;11.70;99.90
11848;DHT22;5983;49.966;8.052;2023-04-19T06:08:04;11.80;99.90
11848;DHT22;5983;49.966;8.052;2023-04-19T06:10:31;11.80;99.90
11848;DHT22;5983;49.966;8.052;2023-04-19T06:12:59;11.80;99.90
11848;DHT22;5983;49.966;8.052;2023-04-19T06:15:26;11.80;99.90
11848;DHT22;5983;49.966;8.052;2023-04-19T06:17:53;11.80;99.90
11848;DHT22;5983;49.966;8.052;2023-04-19T06:20:19;11.80;99.90
11848;DHT22;5983;49.966;8.052;2023-04-19T06:22:47;11.90;99.90
11848;DHT22;5983;49.966;8.052;2023-04-19T06:25:14;12.00;99.90
11848;DHT22;5983;49.966;8.052;2023-04-19T06:27:40;12.00;99.90
11848;DHT22;5983;49.966;8.052;2023-04-19T06:30:09;12.10;99.90
11848;DHT22;5983;49.966;8.052;2023-04-19T06:32:36;12.20;99.90
11848;DHT22;5983;49.966;8.052;2023-04-19T06:35:04;12.30;99.90
11848;DHT22;5983;49.966;8.052;2023-04-19T06:37:32;12.40;99.90
11848;DHT22;5983;49.966;8.052;2023-04-19T06:39:58;12.50;99.90
11848;DHT22;5983;49.966;8.052;2023-04-19T06:42:25;12.60;99.90
11848;DHT22;5983;49.966;8.052;2023-04-19T06:44:53;12.70;99.90
11848;DHT22;5983;49.966;8.052;2023-04-19T06:47:22;12.80;99.90
11848;DHT22;5983;49.966;8.052;2023-04-19T06:49:49;12.90;99.90
11848;DHT22;5983;49.966;8.052;2023-04-19T06:52:16;12.90;99.90
11848;DHT22;5983;49.966;8.052;2023-04-19T06:54:45;13.00;99.90
11848;DHT22;5983;49.966;8.052;2023-04-19T06:57:13;13.10;99.90
11848;DHT22;5983;49.966;8.052;2023-04-19T06:59:40;13.20;99.90
11848;DHT22;5983;49.966;8.052;2023-04-19T07:02:06;13.20;99.90
11848;DHT22;5983;49.966;8.052;2023-04-19T07:04:35;13.20;99.90
11848;DHT22;5983;49.966;8.052;2023-04-19T07:07:02;13.20;99.90
11848;DHT22;5983;49.966;8.052;2023-04-19T07:09:29;13.20;99.90
11848;DHT22;5983;49.966;8.052;2023-04-19T07:11:56;13.20;99.90
11848;DHT22;5983;49.966;8.052;2023-04-19T07:14:22;13.20;99.90
11848;DHT22;5983;49.966;8.052;2023-04-19T07:16:49;13.30;99.90
11848;DHT22;5983;49.966;8.052;2023-04-19T07:19:17;13.30;99.90
11848;DHT22;5983;49.966;8.052;2023-04-19T07:21:46;13.30;99.90
11848;DHT22;5983;49.966;8.052;2023-04-19T07:24:13;13.30;99.90
11848;DHT22;5983;49.966;8.052;2023-04-19T07:26:40;13.30;99.90
11848;DHT22;5983;49.966;8.052;2023-04-19T07:29:07;13.30;99.90
11848;DHT22;5983;49.966;8.052;2023-04-19T07:31:34;13.40;99.90
11848;DHT22;5983;49.966;8.052;2023-04-19T07:34:01;13.40;99.90
11848;DHT22;5983;49.966;8.052;2023-04-19T07:36:28;13.40;99.90
11848;DHT22;5983;49.966;8.052;2023-04-19T07:38:57;13.40;99.90
11848;DHT22;5983;49.966;8.052;2023-04-19T07:44:46;13.40;99.90
11848;DHT22;5983;49.966;8.052;2023-04-19T07:47:13;13.30;99.90
11848;DHT22;5983;49.966;8.052;2023-04-19T07:49:39;13.30;99.90
11848;DHT22;5983;49.966;8.052;2023-04-19T07:52:08;13.30;99.90
11848;DHT22;5983;49.966;8.052;2023-04-19T07:54:36;13.30;99.90
11848;DHT22;5983;49.966;8.052;2023-04-19T07:57:04;13.30;99.90
11848;DHT22;5983;49.966;8.052;2023-04-19T07:59:31;13.30;99.90
11848;DHT22;5983;49.966;8.052;2023-04-19T08:02:03;13.40;99.90
11848;DHT22;5983;49.966;8.052;2023-04-19T08:04:32;13.40;99.90
11848;DHT22;5983;49.966;8.052;2023-04-19T08:06:59;13.40;99.90
11848;DHT22;5983;49.966;8.052;2023-04-19T08:09:26;13.30;99.90
11848;DHT22;5983;49.966;8.052;2023-04-19T08:11:54;13.30;99.90
11848;DHT22;5983;49.966;8.052;2023-04-19T08:14:22;13.30;99.90
11848;DHT22;5983;49.966;8.052;2023-04-19T08:16:48;13.30;99.90
11848;DHT22;5983;49.966;8.052;2023-04-19T08:19:15;13.30;99.90
11848;DHT22;5983;49.966;8.052;2023-04-19T08:21:42;13.30;99.90
11848;DHT22;5983;49.966;8.052;2023-04-19T08:24:08;13.50;99.90
11848;DHT22;5983;49.966;8.052;2023-04-19T08:26:35;13.60;99.90
11848;DHT22;5983;49.966;8.052;2023-04-19T08:29:04;13.80;99.90
11848;DHT22;5983;49.966;8.052;2023-04-19T08:31:31;13.90;99.90
11848;DHT22;5983;49.966;8.052;2023-04-19T08:33:58;14.00;99.90
11848;DHT22;5983;49.966;8.052;2023-04-19T08:36:27;14.00;99.90
11848;DHT22;5983;49.966;8.052;2023-04-19T08:38:54;14.00;99.90
11848;DHT22;5983;49.966;8.052;2023-04-19T08:41:21;14.10;99.90
11848;DHT22;5983;49.966;8.052;2023-04-19T08:43:49;14.10;99.90
11848;DHT22;5983;49.966;8.052;2023-04-19T08:46:19;14.30;99.90
11848;DHT22;5983;49.966;8.052;2023-04-19T08:48:47;14.50;99.90
11848;DHT22;5983;49.966;8.052;2023-04-19T08:51:15;14.80;99.90
11848;DHT22;5983;49.966;8.052;2023-04-19T08:53:43;15.10;99.90
11848;DHT22;5983;49.966;8.052;2023-04-19T08:56:10;15.40;99.90
11848;DHT22;5983;49.966;8.052;2023-04-19T08:58:37;15.50;99.90
11848;DHT22;5983;49.966;8.052;2023-04-19T09:01:04;15.60;99.90
11848;DHT22;5983;49.966;8.052;2023-04-19T09:03:33;15.60;99.90
11848;DHT22;5983;49.966;8.052;2023-04-19T09:06:00;15.50;99.90
11848;DHT22;5983;49.966;8.052;2023-04-19T09:08:27;15.40;99.90
11848;DHT22;5983;49.966;8.052;2023-04-19T09:10:55;15.20;99.90
11848;DHT22;5983;49.966;8.052;2023-04-19T09:13:23;15.10;99.90
11848;DHT22;5983;49.966;8.052;2023-04-19T09:15:51;15.00;99.90
11848;DHT22;5983;49.966;8.052;2023-04-19T09:18:18;14.90;99.90
11848;DHT22;5983;49.966;8.052;2023-04-19T09:20:47;14.90;99.90
11848;DHT22;5983;49.966;8.052;2023-04-19T09:23:15;14.90;99.90
11848;DHT22;5983;49.966;8.052;2023-04-19T09:25:50;15.00;99.90
11848;DHT22;5983;49.966;8.052;2023-04-19T09:28:17;15.30;99.90
11848;DHT22;5983;49.966;8.052;2023-04-19T09:30:45;15.40;99.90
11848;DHT22;5983;49.966;8.052;2023-04-19T09:33:12;15.70;99.90
11848;DHT22;5983;49.966;8.052;2023-04-19T09:35:39;16.00;99.90
11848;DHT22;5983;49.966;8.052;2023-04-19T09:38:09;16.20;99.90
11848;DHT22;5983;49.966;8.052;2023-04-19T09:40:37;16.30;99.90
11848;DHT22;5983;49.966;8.052;2023-04-19T09:43:05;16.40;99.90
11848;DHT22;5983;49.966;8.052;2023-04-19T09:45:39;16.40;99.90
11848;DHT22;5983;49.966;8.052;2023-04-19T09:48:07;16.40;99.90
11848;DHT22;5983;49.966;8.052;2023-04-19T09:50:35;16.50;99.90
11848;DHT22;5983;49.966;8.052;2023-04-19T09:53:17;16.60;99.90
11848;DHT22;5983;49.966;8.052;2023-04-19T09:55:44;16.70;99.90
11848;DHT22;5983;49.966;8.052;2023-04-19T09:58:12;16.70;99.90
11848;DHT22;5983;49.966;8.052;2023-04-19T10:00:39;16.90;99.90
11848;DHT22;5983;49.966;8.052;2023-04-19T10:03:08;17.00;99.90
11848;DHT22;5983;49.966;8.052;2023-04-19T10:05:35;17.10;99.90
11848;DHT22;5983;49.966;8.052;2023-04-19T10:08:05;17.30;99.90
11848;DHT22;5983;49.966;8.052;2023-04-19T10:10:34;17.50;99.90
11848;DHT22;5983;49.966;8.052;2023-04-19T10:13:02;17.50;99.90
11848;DHT22;5983;49.966;8.052;2023-04-19T10:15:30;17.50;99.90
11848;DHT22;5983;49.966;8.052;2023-04-19T10:17:58;17.30;99.90
11848;DHT22;5983;49.966;8.052;2023-04-19T10:20:26;17.10;99.90
11848;DHT22;5983;49.966;8.052;2023-04-19T10:23:01;17.00;99.90
11848;DHT22;5983;49.966;8.052;2023-04-19T10:25:28;17.00;99.90
11848;DHT22;5983;49.966;8.052;2023-04-19T10:27:57;17.00;99.90
11848;DHT22;5983;49.966;8.052;2023-04-19T10:30:24;17.10;99.90
11848;DHT22;5983;49.966;8.052;2023-04-19T10:32:52;17.00;99.90
11848;DHT22;5983;49.966;8.052;2023-04-19T10:35:21;16.90;99.90
11848;DHT22;5983;49.966;8.052;2023-04-19T10:38:05;16.90;99.90
11848;DHT22;5983;49.966;8.052;2023-04-19T10:43:21;16.70;99.90
11848;DHT22;5983;49.966;8.052;2023-04-19T10:45:49;16.70;99.90
11848;DHT22;5983;49.966;8.052;2023-04-19T10:51:11;16.60;99.90
11848;DHT22;5983;49.966;8.052;2023-04-19T10:53:43;16.60;99.90
11848;DHT22;5983;49.966;8.052;2023-04-19T10:56:15;16.70;99.90
11848;DHT22;5983;49.966;8.052;2023-04-19T11:01:48;17.10;99.90
11848;DHT22;5983;49.966;8.052;2023-04-19T11:04:17;17.40;99.90
11848;DHT22;5983;49.966;8.052;2023-04-19T11:06:55;17.70;99.90
11848;DHT22;5983;49.966;8.052;2023-04-19T11:09:27;18.20;99.90
11848;DHT22;5983;49.966;8.052;2023-04-19T11:11:59;18.60;99.60
11848;DHT22;5983;49.966;8.052;2023-04-19T11:14:31;18.80;98.00
11848;DHT22;5983;49.966;8.052;2023-04-19T11:17:01;18.90;96.50
11848;DHT22;5983;49.966;8.052;2023-04-19T11:19:29;18.80;94.80
11848;DHT22;5983;49.966;8.052;2023-04-19T11:21:57;18.60;94.80
11848;DHT22;5983;49.966;8.052;2023-04-19T11:24:25;18.30;94.90
11848;DHT22;5983;49.966;8.052;2023-04-19T11:26:52;18.10;94.70
11848;DHT22;5983;49.966;8.052;2023-04-19T11:29:21;17.80;94.50
11848;DHT22;5983;49.966;8.052;2023-04-19T11:31:49;17.70;94.40
11848;DHT22;5983;49.966;8.052;2023-04-19T11:34:16;17.80;93.80
11848;DHT22;5983;49.966;8.052;2023-04-19T11:36:47;18.00;94.00
11848;DHT22;5983;49.966;8.052;2023-04-19T11:39:18;18.50;94.70
11848;DHT22;5983;49.966;8.052;2023-04-19T11:41:45;19.30;93.70
11848;DHT22;5983;49.966;8.052;2023-04-19T11:44:13;19.80;90.90
11848;DHT22;5983;49.966;8.052;2023-04-19T11:46:40;20.20;90.50
11848;DHT22;5983;49.966;8.052;2023-04-19T11:49:09;20.40;87.40
11848;DHT22;5983;49.966;8.052;2023-04-19T11:51:40;20.40;86.20
11848;DHT22;5983;49.966;8.052;2023-04-19T11:54:11;20.30;85.10
11848;DHT22;5983;49.966;8.052;2023-04-19T11:56:59;20.20;82.90
11848;DHT22;5983;49.966;8.052;2023-04-19T11:59:28;20.10;80.60
11848;DHT22;5983;49.966;8.052;2023-04-19T12:01:55;20.00;79.80
11848;DHT22;5983;49.966;8.052;2023-04-19T12:04:30;20.00;80.20
11848;DHT22;5983;49.966;8.052;2023-04-19T12:06:58;20.10;80.90
11848;DHT22;5983;49.966;8.052;2023-04-19T12:09:25;20.40;79.30
11848;DHT22;5983;49.966;8.052;2023-04-19T12:11:52;20.60;77.90
11848;DHT22;5983;49.966;8.052;2023-04-19T12:14:19;20.70;75.20
11848;DHT22;5983;49.966;8.052;2023-04-19T12:17:03;20.70;74.80
11848;DHT22;5983;49.966;8.052;2023-04-19T12:19:34;20.70;74.60
11848;DHT22;5983;49.966;8.052;2023-04-19T12:22:12;20.50;74.70
11848;DHT22;5983;49.966;8.052;2023-04-19T12:24:40;20.30;72.70
11848;DHT22;5983;49.966;8.052;2023-04-19T12:27:08;20.40;73.80
11848;DHT22;5983;49.966;8.052;2023-04-19T12:29:35;20.70;71.60
11848;DHT22;5983;49.966;8.052;2023-04-19T12:32:02;20.80;71.00
11848;DHT22;5983;49.966;8.052;2023-04-19T12:34:30;20.70;70.70
11848;DHT22;5983;49.966;8.052;2023-04-19T12:36:58;20.70;71.60
11848;DHT22;5983;49.966;8.052;2023-04-19T12:39:25;20.70;71.30
11848;DHT22;5983;49.966;8.052;2023-04-19T12:41:52;20.70;69.20
11848;DHT22;5983;49.966;8.052;2023-04-19T12:44:19;20.70;70.00
11848;DHT22;5983;49.966;8.052;2023-04-19T12:46:46;20.60;70.10
11848;DHT22;5983;49.966;8.052;2023-04-19T12:49:13;20.50;68.50
11848;DHT22;5983;49.966;8.052;2023-04-19T12:51:40;20.30;67.20
11848;DHT22;5983;49.966;8.052;2023-04-19T12:54:09;20.20;66.20
11848;DHT22;5983;49.966;8.052;2023-04-19T12:56:35;20.00;67.70
11848;DHT22;5983;49.966;8.052;2023-04-19T12:59:02;20.00;67.60
11848;DHT22;5983;49.966;8.052;2023-04-19T13:01:30;20.00;66.50
11848;DHT22;5983;49.966;8.052;2023-04-19T13:03:57;19.90;67.20
11848;DHT22;5983;49.966;8.052;2023-04-19T13:06:24;20.00;65.20
11848;DHT22;5983;49.966;8.052;2023-04-19T13:08:52;20.10;64.10
11848;DHT22;5983;49.966;8.052;2023-04-19T13:11:20;20.20;63.30
11848;DHT22;5983;49.966;8.052;2023-04-19T13:13:51;20.30;62.80
11848;DHT22;5983;49.966;8.052;2023-04-19T13:16:18;20.50;62.30
11848;DHT22;5983;49.966;8.052;2023-04-19T13:18:45;20.60;60.40
11848;DHT22;5983;49.966;8.052;2023-04-19T13:21:11;20.70;62.20
11848;DHT22;5983;49.966;8.052;2023-04-19T13:23:38;20.90;61.20
11848;DHT22;5983;49.966;8.052;2023-04-19T13:26:08;20.90;58.50
11848;DHT22;5983;49.966;8.052;2023-04-19T13:28:37;20.80;58.00
11848;DHT22;5983;49.966;8.052;2023-04-19T13:31:04;20.70;57.80
11848;DHT22;5983;49.966;8.052;2023-04-19T13:33:31;20.50;56.20
11848;DHT22;5983;49.966;8.052;2023-04-19T13:35:58;20.50;57.20
11848;DHT22;5983;49.966;8.052;2023-04-19T13:38:24;20.50;57.40
11848;DHT22;5983;49.966;8.052;2023-04-19T13:40:51;20.50;56.90
11848;DHT22;5983;49.966;8.052;2023-04-19T13:43:18;20.50;55.60
11848;DHT22;5983;49.966;8.052;2023-04-19T13:45:47;20.40;56.90
11848;DHT22;5983;49.966;8.052;2023-04-19T13:48:14;20.30;56.80
11848;DHT22;5983;49.966;8.052;2023-04-19T13:50:41;20.20;55.10
11848;DHT22;5983;49.966;8.052;2023-04-19T13:53:08;20.30;54.20
11848;DHT22;5983;49.966;8.052;2023-04-19T13:55:35;20.20;54.50
11848;DHT22;5983;49.966;8.052;2023-04-19T13:58:01;20.30;55.20
11848;DHT22;5983;49.966;8.052;2023-04-19T14:00:28;20.30;53.70
11848;DHT22;5983;49.966;8.052;2023-04-19T14:02:56;20.30;53.00
11848;DHT22;5983;49.966;8.052;2023-04-19T14:05:24;20.10;50.90
11848;DHT22;5983;49.966;8.052;2023-04-19T14:07:50;20.00;51.40
11848;DHT22;5983;49.966;8.052;2023-04-19T14:10:17;20.00;51.20
11848;DHT22;5983;49.966;8.052;2023-04-19T14:12:45;20.00;51.40
11848;DHT22;5983;49.966;8.052;2023-04-19T14:15:13;19.80;50.40
11848;DHT22;5983;49.966;8.052;2023-04-19T14:17:40;19.70;50.10
11848;DHT22;5983;49.966;8.052;2023-04-19T14:20:09;19.70;50.00
11848;DHT22;5983;49.966;8.052;2023-04-19T14:22:36;19.50;49.30
11848;DHT22;5983;49.966;8.052;2023-04-19T14:25:04;19.40;49.20
11848;DHT22;5983;49.966;8.052;2023-04-19T14:27:31;19.30;50.30
11848;DHT22;5983;49.966;8.052;2023-04-19T14:29:59;19.30;49.90
11848;DHT22;5983;49.966;8.052;2023-04-19T14:32:26;19.20;49.10
11848;DHT22;5983;49.966;8.052;2023-04-19T14:34:53;19.10;48.90
11848;DHT22;5983;49.966;8.052;2023-04-19T14:37:22;19.10;49.40
11848;DHT22;5983;49.966;8.052;2023-04-19T14:39:49;19.10;47.50
11848;DHT22;5983;49.966;8.052;2023-04-19T14:42:16;18.90;46.60
11848;DHT22;5983;49.966;8.052;2023-04-19T14:44:42;18.70;46.40
11848;DHT22;5983;49.966;8.052;2023-04-19T14:47:11;18.50;47.30
11848;DHT22;5983;49.966;8.052;2023-04-19T14:49:38;18.40;48.00
11848;DHT22;5983;49.966;8.052;2023-04-19T14:52:05;18.30;47.20
11848;DHT22;5983;49.966;8.052;2023-04-19T14:54:33;18.30;47.50
11848;DHT22;5983;49.966;8.052;2023-04-19T14:57:00;18.20;47.30
11848;DHT22;5983;49.966;8.052;2023-04-19T14:59:27;18.10;46.60
11848;DHT22;5983;49.966;8.052;2023-04-19T15:01:54;18.00;46.90
11848;DHT22;5983;49.966;8.052;2023-04-19T15:04:21;17.90;47.10
11848;DHT22;5983;49.966;8.052;2023-04-19T15:06:47;17.90;46.80
11848;DHT22;5983;49.966;8.052;2023-04-19T15:09:14;17.90;46.00
11848;DHT22;5983;49.966;8.052;2023-04-19T15:11:43;17.90;45.70
11848;DHT22;5983;49.966;8.052;2023-04-19T15:14:10;17.80;44.80
11848;DHT22;5983;49.966;8.052;2023-04-19T15:16:37;17.70;45.00
11848;DHT22;5983;49.966;8.052;2023-04-19T15:19:03;17.70;44.80
11848;DHT22;5983;49.966;8.052;2023-04-19T15:21:31;17.60;42.40
11848;DHT22;5983;49.966;8.052;2023-04-19T15:23:58;17.50;42.90
11848;DHT22;5983;49.966;8.052;2023-04-19T15:26:25;17.40;43.40
11848;DHT22;5983;49.966;8.052;2023-04-19T15:28:53;17.30;43.50
11848;DHT22;5983;49.966;8.052;2023-04-19T15:31:21;17.20;44.20
11848;DHT22;5983;49.966;8.052;2023-04-19T15:33:47;17.20;44.10
11848;DHT22;5983;49.966;8.052;2023-04-19T15:36:14;17.10;43.00
11848;DHT22;5983;49.966;8.052;2023-04-19T15:38:41;16.90;41.60
11848;DHT22;5983;49.966;8.052;2023-04-19T15:41:08;16.90;42.20
11848;DHT22;5983;49.966;8.052;2023-04-19T15:43:35;16.80;41.20
11848;DHT22;5983;49.966;8.052;2023-04-19T15:46:03;16.70;42.00
11848;DHT22;5983;49.966;8.052;2023-04-19T15:48:30;16.60;42.90
11848;DHT22;5983;49.966;8.052;2023-04-19T15:50:56;16.50;43.50
11848;DHT22;5983;49.966;8.052;2023-04-19T15:53:23;16.40;43.00
11848;DHT22;5983;49.966;8.052;2023-04-19T15:55:50;16.30;43.30
11848;DHT22;5983;49.966;8.052;2023-04-19T15:58:17;16.20;43.90
11848;DHT22;5983;49.966;8.052;2023-04-19T16:00:43;16.10;44.10
11848;DHT22;5983;49.966;8.052;2023-04-19T16:03:11;16.00;44.80
11848;DHT22;5983;49.966;8.052;2023-04-19T16:05:38;15.90;45.30